sensor_id;sensor_type;location;lat;lon;timestamp;P1;durP1;ratioP1;P2;durP2;ratioP2
49688;SDS011;70518;51.400;7.428;2023-10-09T00:00:30;18.52;;;7.88;;
49688;SDS011;70518;51.400;7.428;2023-10-09T00:03:15;21.17;;;9.02;;
49688;SDS011;70518;51.400;7.428;2023-10-09T00:05:42;18.85;;;8.40;;
49688;SDS011;70518;51.400;7.428;2023-10-09T00:08:11;17.20;;;8.32;;
49688;SDS011;70518;51.400;7.428;2023-10-09T00:11:09;18.75;;;8.30;;
49688;SDS011;70518;51.400;7.428;2023-10-09T00:13:41;15.82;;;8.02;;
49688;SDS011;70518;51.400;7.428;2023-10-09T00:16:14;18.52;;;8.30;;
49688;SDS011;70518;51.400;7.428;2023-10-09T00:19:00;19.02;;;8.75;;
49688;SDS011;70518;51.400;7.428;2023-10-09T00:21:43;19.92;;;9.32;;
49688;SDS011;70518;51.400;7.428;2023-10-09T00:24:09;16.85;;;7.47;;
49688;SDS011;70518;51.400;7.428;2023-10-09T00:26:43;14.45;;;7.70;;
49688;SDS011;70518;51.400;7.428;2023-10-09T00:29:12;16.58;;;8.32;;
49688;SDS011;70518;51.400;7.428;2023-10-09T00:31:48;18.10;;;8.10;;
49688;SDS011;70518;51.400;7.428;2023-10-09T00:34:21;17.05;;;8.38;;
49688;SDS011;70518;51.400;7.428;2023-10-09T00:36:47;17.23;;;7.78;;
49688;SDS011;70518;51.400;7.428;2023-10-09T00:39:17;15.38;;;7.93;;
49688;SDS011;70518;51.400;7.428;2023-10-09T00:42:11;14.90;;;7.10;;
49688;SDS011;70518;51.400;7.428;2023-10-09T00:44:38;15.77;;;7.75;;
49688;SDS011;70518;51.400;7.428;2023-10-09T00:47:07;16.20;;;7.85;;
49688;SDS011;70518;51.400;7.428;2023-10-09T00:49:53;14.20;;;8.43;;
49688;SDS011;70518;51.400;7.428;2023-10-09T00:52:26;18.05;;;7.90;;
49688;SDS011;70518;51.400;7.428;2023-10-09T00:55:00;18.48;;;8.35;;
49688;SDS011;70518;51.400;7.428;2023-10-09T00:57:33;16.10;;;8.13;;
49688;SDS011;70518;51.400;7.428;2023-10-09T01:00:02;18.27;;;8.68;;
49688;SDS011;70518;51.400;7.428;2023-10-09T01:02:35;18.65;;;8.55;;
49688;SDS011;70518;51.400;7.428;2023-10-09T01:05:02;18.75;;;8.68;;
49688;SDS011;70518;51.400;7.428;2023-10-09T01:07:45;21.35;;;8.77;;
49688;SDS011;70518;51.400;7.428;2023-10-09T01:10:12;18.42;;;8.43;;
49688;SDS011;70518;51.400;7.428;2023-10-09T01:12:41;16.92;;;8.73;;
49688;SDS011;70518;51.400;7.428;2023-10-09T01:15:15;16.33;;;7.95;;
49688;SDS011;70518;51.400;7.428;2023-10-09T01:20:26;16.42;;;8.13;;
49688;SDS011;70518;51.400;7.428;2023-10-09T01:22:55;19.35;;;7.68;;
49688;SDS011;70518;51.400;7.428;2023-10-09T01:25:21;24.98;;;9.15;;
49688;SDS011;70518;51.400;7.428;2023-10-09T01:27:46;16.75;;;7.97;;
49688;SDS011;70518;51.400;7.428;2023-10-09T01:30:12;18.38;;;7.43;;
49688;SDS011;70518;51.400;7.428;2023-10-09T01:32:39;15.95;;;7.03;;
49688;SDS011;70518;51.400;7.428;2023-10-09T01:35:05;22.10;;;10.15;;
49688;SDS011;70518;51.400;7.428;2023-10-09T01:37:46;19.70;;;8.82;;
49688;SDS011;70518;51.400;7.428;2023-10-09T01:40:14;20.48;;;7.93;;
49688;SDS011;70518;51.400;7.428;2023-10-09T01:43:00;19.48;;;7.93;;
49688;SDS011;70518;51.400;7.428;2023-10-09T01:45:28;16.85;;;7.40;;
49688;SDS011;70518;51.400;7.428;2023-10-09T01:47:54;12.85;;;7.10;;
49688;SDS011;70518;51.400;7.428;2023-10-09T01:50:20;21.73;;;7.47;;
49688;SDS011;70518;51.400;7.428;2023-10-09T01:53:00;15.15;;;7.43;;
49688;SDS011;70518;51.400;7.428;2023-10-09T01:55:27;14.75;;;7.32;;
49688;SDS011;70518;51.400;7.428;2023-10-09T01:58:01;16.52;;;8.13;;
49688;SDS011;70518;51.400;7.428;2023-10-09T02:00:31;14.77;;;7.32;;
49688;SDS011;70518;51.400;7.428;2023-10-09T02:03:08;17.00;;;7.43;;
49688;SDS011;70518;51.400;7.428;2023-10-09T02:05:37;15.18;;;7.20;;
49688;SDS011;70518;51.400;7.428;2023-10-09T02:08:03;15.10;;;8.07;;
49688;SDS011;70518;51.400;7.428;2023-10-09T02:10:30;15.43;;;7.15;;
49688;SDS011;70518;51.400;7.428;2023-10-09T02:12:56;15.05;;;7.68;;
49688;SDS011;70518;51.400;7.428;2023-10-09T02:18:11;16.48;;;8.10;;
49688;SDS011;70518;51.400;7.428;2023-10-09T02:20:52;16.95;;;7.90;;
49688;SDS011;70518;51.400;7.428;2023-10-09T02:23:33;18.63;;;7.90;;
49688;SDS011;70518;51.400;7.428;2023-10-09T02:26:15;14.98;;;7.72;;
49688;SDS011;70518;51.400;7.428;2023-10-09T02:28:54;13.55;;;6.97;;
49688;SDS011;70518;51.400;7.428;2023-10-09T02:31:24;17.13;;;7.60;;
49688;SDS011;70518;51.400;7.428;2023-10-09T02:33:53;15.52;;;7.90;;
49688;SDS011;70518;51.400;7.428;2023-10-09T02:36:20;13.98;;;7.22;;
49688;SDS011;70518;51.400;7.428;2023-10-09T02:38:46;16.67;;;7.85;;
49688;SDS011;70518;51.400;7.428;2023-10-09T02:41:13;14.15;;;7.30;;
49688;SDS011;70518;51.400;7.428;2023-10-09T02:43:40;17.73;;;6.90;;
49688;SDS011;70518;51.400;7.428;2023-10-09T02:46:13;14.27;;;6.85;;
49688;SDS011;70518;51.400;7.428;2023-10-09T02:48:43;14.90;;;8.07;;
49688;SDS011;70518;51.400;7.428;2023-10-09T02:51:18;16.13;;;7.20;;
49688;SDS011;70518;51.400;7.428;2023-10-09T02:54:03;15.43;;;7.03;;
49688;SDS011;70518;51.400;7.428;2023-10-09T02:56:52;12.98;;;7.07;;
49688;SDS011;70518;51.400;7.428;2023-10-09T03:02:06;15.52;;;7.28;;
49688;SDS011;70518;51.400;7.428;2023-10-09T03:04:32;16.20;;;7.78;;
49688;SDS011;70518;51.400;7.428;2023-10-09T03:06:57;15.38;;;7.28;;
49688;SDS011;70518;51.400;7.428;2023-10-09T03:09:23;13.85;;;7.53;;
49688;SDS011;70518;51.400;7.428;2023-10-09T03:11:56;15.63;;;7.72;;
49688;SDS011;70518;51.400;7.428;2023-10-09T03:14:31;16.38;;;7.78;;
49688;SDS011;70518;51.400;7.428;2023-10-09T03:17:00;16.25;;;7.95;;
49688;SDS011;70518;51.400;7.428;2023-10-09T03:19:25;14.88;;;6.78;;
49688;SDS011;70518;51.400;7.428;2023-10-09T03:21:53;12.77;;;6.60;;
49688;SDS011;70518;51.400;7.428;2023-10-09T03:24:18;17.73;;;7.55;;
49688;SDS011;70518;51.400;7.428;2023-10-09T03:26:44;13.80;;;7.00;;
49688;SDS011;70518;51.400;7.428;2023-10-09T03:29:10;14.77;;;7.15;;
49688;SDS011;70518;51.400;7.428;2023-10-09T03:31:36;13.82;;;7.28;;
49688;SDS011;70518;51.400;7.428;2023-10-09T03:34:02;11.38;;;6.72;;
49688;SDS011;70518;51.400;7.428;2023-10-09T03:36:28;13.18;;;7.38;;
49688;SDS011;70518;51.400;7.428;2023-10-09T03:38:55;12.73;;;6.45;;
49688;SDS011;70518;51.400;7.428;2023-10-09T03:41:23;14.98;;;7.85;;
49688;SDS011;70518;51.400;7.428;2023-10-09T03:43:54;15.25;;;7.93;;
49688;SDS011;70518;51.400;7.428;2023-10-09T03:46:22;14.60;;;6.95;;
49688;SDS011;70518;51.400;7.428;2023-10-09T03:48:58;15.00;;;7.57;;
49688;SDS011;70518;51.400;7.428;2023-10-09T03:51:35;13.40;;;6.97;;
49688;SDS011;70518;51.400;7.428;2023-10-09T03:54:02;16.08;;;7.32;;
49688;SDS011;70518;51.400;7.428;2023-10-09T03:56:31;14.13;;;6.85;;
49688;SDS011;70518;51.400;7.428;2023-10-09T03:58:57;17.55;;;7.78;;
49688;SDS011;70518;51.400;7.428;2023-10-09T04:01:23;16.30;;;7.43;;
49688;SDS011;70518;51.400;7.428;2023-10-09T04:03:55;11.63;;;7.18;;
49688;SDS011;70518;51.400;7.428;2023-10-09T04:06:24;16.63;;;6.93;;
49688;SDS011;70518;51.400;7.428;2023-10-09T04:08:55;16.05;;;7.13;;
49688;SDS011;70518;51.400;7.428;2023-10-09T04:11:21;13.27;;;7.10;;
49688;SDS011;70518;51.400;7.428;2023-10-09T04:13:49;14.00;;;7.78;;
49688;SDS011;70518;51.400;7.428;2023-10-09T04:16:17;16.88;;;8.23;;
49688;SDS011;70518;51.400;7.428;2023-10-09T04:18:58;15.45;;;6.75;;
49688;SDS011;70518;51.400;7.428;2023-10-09T04:21:24;13.80;;;7.80;;
49688;SDS011;70518;51.400;7.428;2023-10-09T04:24:00;15.32;;;7.55;;
49688;SDS011;70518;51.400;7.428;2023-10-09T04:26:38;13.32;;;7.40;;
49688;SDS011;70518;51.400;7.428;2023-10-09T04:29:09;13.43;;;7.85;;
49688;SDS011;70518;51.400;7.428;2023-10-09T04:31:44;13.50;;;6.95;;
49688;SDS011;70518;51.400;7.428;2023-10-09T04:34:16;16.15;;;7.15;;
49688;SDS011;70518;51.400;7.428;2023-10-09T04:36:49;14.95;;;7.57;;
49688;SDS011;70518;51.400;7.428;2023-10-09T04:39:16;14.93;;;8.57;;
49688;SDS011;70518;51.400;7.428;2023-10-09T04:42:01;12.95;;;7.30;;
49688;SDS011;70518;51.400;7.428;2023-10-09T04:44:45;17.23;;;7.75;;
49688;SDS011;70518;51.400;7.428;2023-10-09T04:47:30;15.77;;;7.13;;
49688;SDS011;70518;51.400;7.428;2023-10-09T04:50:09;14.32;;;8.23;;
49688;SDS011;70518;51.400;7.428;2023-10-09T04:53:00;14.63;;;7.00;;
49688;SDS011;70518;51.400;7.428;2023-10-09T04:55:41;13.68;;;7.68;;
49688;SDS011;70518;51.400;7.428;2023-10-09T04:58:18;11.43;;;6.63;;
49688;SDS011;70518;51.400;7.428;2023-10-09T05:00:56;13.18;;;7.35;;
49688;SDS011;70518;51.400;7.428;2023-10-09T05:03:22;13.43;;;6.57;;
49688;SDS011;70518;51.400;7.428;2023-10-09T05:06:07;16.55;;;8.00;;
49688;SDS011;70518;51.400;7.428;2023-10-09T05:08:46;13.35;;;6.53;;
49688;SDS011;70518;51.400;7.428;2023-10-09T05:11:13;12.77;;;6.82;;
49688;SDS011;70518;51.400;7.428;2023-10-09T05:14:00;10.32;;;6.07;;
49688;SDS011;70518;51.400;7.428;2023-10-09T05:16:38;15.85;;;6.38;;
49688;SDS011;70518;51.400;7.428;2023-10-09T05:19:24;11.85;;;6.00;;
49688;SDS011;70518;51.400;7.428;2023-10-09T05:22:07;16.77;;;7.90;;
49688;SDS011;70518;51.400;7.428;2023-10-09T05:24:41;15.45;;;7.40;;
49688;SDS011;70518;51.400;7.428;2023-10-09T05:27:12;12.82;;;6.55;;
49688;SDS011;70518;51.400;7.428;2023-10-09T05:29:42;11.43;;;6.35;;
49688;SDS011;70518;51.400;7.428;2023-10-09T05:32:24;12.30;;;5.93;;
49688;SDS011;70518;51.400;7.428;2023-10-09T05:35:00;12.70;;;6.47;;
49688;SDS011;70518;51.400;7.428;2023-10-09T05:39:54;16.75;;;6.90;;
49688;SDS011;70518;51.400;7.428;2023-10-09T05:42:27;13.25;;;6.70;;
49688;SDS011;70518;51.400;7.428;2023-10-09T05:45:02;13.65;;;7.57;;
49688;SDS011;70518;51.400;7.428;2023-10-09T05:50:30;11.55;;;5.80;;
49688;SDS011;70518;51.400;7.428;2023-10-09T05:52:59;13.18;;;6.35;;
49688;SDS011;70518;51.400;7.428;2023-10-09T05:55:31;13.55;;;6.05;;
49688;SDS011;70518;51.400;7.428;2023-10-09T05:58:15;13.02;;;5.95;;
49688;SDS011;70518;51.400;7.428;2023-10-09T06:01:00;11.32;;;6.45;;
49688;SDS011;70518;51.400;7.428;2023-10-09T06:03:44;12.57;;;5.90;;
49688;SDS011;70518;51.400;7.428;2023-10-09T06:06:19;12.43;;;6.20;;
49688;SDS011;70518;51.400;7.428;2023-10-09T06:09:20;11.93;;;6.30;;
49688;SDS011;70518;51.400;7.428;2023-10-09T06:11:47;10.73;;;5.80;;
49688;SDS011;70518;51.400;7.428;2023-10-09T06:14:21;14.65;;;6.88;;
49688;SDS011;70518;51.400;7.428;2023-10-09T06:16:57;12.48;;;6.22;;
49688;SDS011;70518;51.400;7.428;2023-10-09T06:19:23;11.68;;;6.22;;
49688;SDS011;70518;51.400;7.428;2023-10-09T06:21:57;14.48;;;6.97;;
49688;SDS011;70518;51.400;7.428;2023-10-09T06:24:47;13.80;;;5.77;;
49688;SDS011;70518;51.400;7.428;2023-10-09T06:27:18;10.55;;;6.00;;
49688;SDS011;70518;51.400;7.428;2023-10-09T06:29:56;11.02;;;5.75;;
49688;SDS011;70518;51.400;7.428;2023-10-09T06:32:37;13.75;;;6.60;;
49688;SDS011;70518;51.400;7.428;2023-10-09T06:35:03;14.80;;;6.57;;
49688;SDS011;70518;51.400;7.428;2023-10-09T06:37:42;11.80;;;5.57;;
49688;SDS011;70518;51.400;7.428;2023-10-09T06:40:26;16.25;;;7.50;;
49688;SDS011;70518;51.400;7.428;2023-10-09T06:43:22;11.30;;;5.70;;
49688;SDS011;70518;51.400;7.428;2023-10-09T06:45:52;12.25;;;5.90;;
49688;SDS011;70518;51.400;7.428;2023-10-09T06:48:23;14.18;;;6.50;;
49688;SDS011;70518;51.400;7.428;2023-10-09T06:51:04;13.70;;;5.85;;
49688;SDS011;70518;51.400;7.428;2023-10-09T06:53:49;10.35;;;5.93;;
49688;SDS011;70518;51.400;7.428;2023-10-09T06:56:27;11.05;;;5.68;;
49688;SDS011;70518;51.400;7.428;2023-10-09T06:59:03;9.85;;;5.13;;
49688;SDS011;70518;51.400;7.428;2023-10-09T07:01:40;10.25;;;4.97;;
49688;SDS011;70518;51.400;7.428;2023-10-09T07:04:09;9.23;;;5.47;;
49688;SDS011;70518;51.400;7.428;2023-10-09T07:06:44;15.93;;;6.43;;
49688;SDS011;70518;51.400;7.428;2023-10-09T07:09:16;12.90;;;5.22;;
49688;SDS011;70518;51.400;7.428;2023-10-09T07:11:47;12.45;;;5.80;;
49688;SDS011;70518;51.400;7.428;2023-10-09T07:14:15;11.65;;;5.72;;
49688;SDS011;70518;51.400;7.428;2023-10-09T07:16:57;11.98;;;5.25;;
49688;SDS011;70518;51.400;7.428;2023-10-09T07:19:40;10.05;;;5.80;;
49688;SDS011;70518;51.400;7.428;2023-10-09T07:22:06;12.60;;;6.15;;
49688;SDS011;70518;51.400;7.428;2023-10-09T07:24:48;14.90;;;5.40;;
49688;SDS011;70518;51.400;7.428;2023-10-09T07:27:22;11.27;;;6.38;;
49688;SDS011;70518;51.400;7.428;2023-10-09T07:30:07;10.32;;;5.80;;
49688;SDS011;70518;51.400;7.428;2023-10-09T07:33:02;11.18;;;6.13;;
49688;SDS011;70518;51.400;7.428;2023-10-09T07:35:34;10.07;;;5.97;;
49688;SDS011;70518;51.400;7.428;2023-10-09T07:38:10;12.18;;;6.28;;
49688;SDS011;70518;51.400;7.428;2023-10-09T07:40:37;11.25;;;6.03;;
49688;SDS011;70518;51.400;7.428;2023-10-09T07:43:23;11.85;;;6.63;;
49688;SDS011;70518;51.400;7.428;2023-10-09T07:45:52;11.63;;;6.20;;
49688;SDS011;70518;51.400;7.428;2023-10-09T07:48:24;13.13;;;6.13;;
49688;SDS011;70518;51.400;7.428;2023-10-09T07:51:03;15.25;;;7.15;;
49688;SDS011;70518;51.400;7.428;2023-10-09T07:54:08;13.75;;;6.15;;
49688;SDS011;70518;51.400;7.428;2023-10-09T07:56:39;13.93;;;6.75;;
49688;SDS011;70518;51.400;7.428;2023-10-09T07:59:10;11.93;;;6.68;;
49688;SDS011;70518;51.400;7.428;2023-10-09T08:01:40;10.90;;;5.97;;
49688;SDS011;70518;51.400;7.428;2023-10-09T08:04:18;9.30;;;5.90;;
49688;SDS011;70518;51.400;7.428;2023-10-09T08:06:45;13.85;;;6.30;;
49688;SDS011;70518;51.400;7.428;2023-10-09T08:09:12;10.38;;;5.88;;
49688;SDS011;70518;51.400;7.428;2023-10-09T08:11:38;11.23;;;6.88;;
49688;SDS011;70518;51.400;7.428;2023-10-09T08:14:10;14.70;;;6.20;;
49688;SDS011;70518;51.400;7.428;2023-10-09T08:16:45;11.98;;;6.88;;
49688;SDS011;70518;51.400;7.428;2023-10-09T08:19:11;11.35;;;6.00;;
49688;SDS011;70518;51.400;7.428;2023-10-09T08:21:57;10.20;;;6.18;;
49688;SDS011;70518;51.400;7.428;2023-10-09T08:24:41;13.13;;;6.57;;
49688;SDS011;70518;51.400;7.428;2023-10-09T08:27:07;10.70;;;5.88;;
49688;SDS011;70518;51.400;7.428;2023-10-09T08:29:52;13.98;;;6.05;;
49688;SDS011;70518;51.400;7.428;2023-10-09T08:32:37;12.20;;;5.75;;
49688;SDS011;70518;51.400;7.428;2023-10-09T08:35:07;13.43;;;6.47;;
49688;SDS011;70518;51.400;7.428;2023-10-09T08:37:54;11.43;;;6.57;;
49688;SDS011;70518;51.400;7.428;2023-10-09T08:40:30;12.68;;;6.55;;
49688;SDS011;70518;51.400;7.428;2023-10-09T08:42:58;11.80;;;5.75;;
49688;SDS011;70518;51.400;7.428;2023-10-09T08:45:33;11.32;;;5.20;;
49688;SDS011;70518;51.400;7.428;2023-10-09T08:48:04;9.23;;;5.60;;
49688;SDS011;70518;51.400;7.428;2023-10-09T08:50:32;11.82;;;5.57;;
49688;SDS011;70518;51.400;7.428;2023-10-09T08:52:59;16.45;;;6.97;;
49688;SDS011;70518;51.400;7.428;2023-10-09T08:55:25;9.45;;;5.22;;
49688;SDS011;70518;51.400;7.428;2023-10-09T08:57:51;12.73;;;6.38;;
49688;SDS011;70518;51.400;7.428;2023-10-09T09:00:17;11.30;;;6.30;;
49688;SDS011;70518;51.400;7.428;2023-10-09T09:02:50;13.23;;;6.47;;
49688;SDS011;70518;51.400;7.428;2023-10-09T09:05:18;12.57;;;5.93;;
49688;SDS011;70518;51.400;7.428;2023-10-09T09:07:45;11.45;;;5.93;;
49688;SDS011;70518;51.400;7.428;2023-10-09T09:10:11;11.68;;;6.78;;
49688;SDS011;70518;51.400;7.428;2023-10-09T09:12:43;11.65;;;6.35;;
49688;SDS011;70518;51.400;7.428;2023-10-09T09:15:15;13.48;;;6.53;;
49688;SDS011;70518;51.400;7.428;2023-10-09T09:17:45;10.40;;;5.93;;
49688;SDS011;70518;51.400;7.428;2023-10-09T09:20:22;9.70;;;5.70;;
49688;SDS011;70518;51.400;7.428;2023-10-09T09:23:01;13.95;;;6.32;;
49688;SDS011;70518;51.400;7.428;2023-10-09T09:25:39;10.80;;;6.00;;
49688;SDS011;70518;51.400;7.428;2023-10-09T09:28:13;10.82;;;6.43;;
49688;SDS011;70518;51.400;7.428;2023-10-09T09:30:47;13.95;;;6.70;;
49688;SDS011;70518;51.400;7.428;2023-10-09T09:33:25;14.70;;;7.03;;
49688;SDS011;70518;51.400;7.428;2023-10-09T09:36:10;14.27;;;6.32;;
49688;SDS011;70518;51.400;7.428;2023-10-09T09:38:36;13.13;;;7.35;;
49688;SDS011;70518;51.400;7.428;2023-10-09T09:41:15;11.23;;;6.20;;
49688;SDS011;70518;51.400;7.428;2023-10-09T09:43:54;11.68;;;6.97;;
49688;SDS011;70518;51.400;7.428;2023-10-09T09:46:22;9.70;;;5.75;;
49688;SDS011;70518;51.400;7.428;2023-10-09T09:48:57;11.40;;;6.18;;
49688;SDS011;70518;51.400;7.428;2023-10-09T09:51:32;14.05;;;6.00;;
49688;SDS011;70518;51.400;7.428;2023-10-09T09:53:57;10.50;;;5.70;;
49688;SDS011;70518;51.400;7.428;2023-10-09T09:56:26;11.00;;;6.18;;
49688;SDS011;70518;51.400;7.428;2023-10-09T09:58:53;10.85;;;5.10;;
49688;SDS011;70518;51.400;7.428;2023-10-09T10:01:26;13.43;;;5.97;;
49688;SDS011;70518;51.400;7.428;2023-10-09T10:04:01;11.43;;;5.47;;
49688;SDS011;70518;51.400;7.428;2023-10-09T10:06:33;8.95;;;5.18;;
49688;SDS011;70518;51.400;7.428;2023-10-09T10:09:00;10.95;;;5.70;;
49688;SDS011;70518;51.400;7.428;2023-10-09T10:11:41;8.88;;;5.25;;
49688;SDS011;70518;51.400;7.428;2023-10-09T10:14:09;10.05;;;5.18;;
49688;SDS011;70518;51.400;7.428;2023-10-09T10:17:20;19.42;;;9.43;;
49688;SDS011;70518;51.400;7.428;2023-10-09T10:19:59;22.20;;;10.43;;
49688;SDS011;70518;51.400;7.428;2023-10-09T10:22:45;27.10;;;11.95;;
49688;SDS011;70518;51.400;7.428;2023-10-09T10:25:31;20.85;;;11.18;;
49688;SDS011;70518;51.400;7.428;2023-10-09T10:31:01;13.55;;;7.80;;
49688;SDS011;70518;51.400;7.428;2023-10-09T10:33:44;16.35;;;8.15;;
49688;SDS011;70518;51.400;7.428;2023-10-09T10:36:20;9.50;;;4.93;;
49688;SDS011;70518;51.400;7.428;2023-10-09T10:39:04;11.10;;;5.05;;
49688;SDS011;70518;51.400;7.428;2023-10-09T10:41:54;11.15;;;5.30;;
49688;SDS011;70518;51.400;7.428;2023-10-09T10:44:25;11.80;;;4.93;;
49688;SDS011;70518;51.400;7.428;2023-10-09T10:47:02;11.45;;;5.03;;
49688;SDS011;70518;51.400;7.428;2023-10-09T10:49:29;12.63;;;4.72;;
49688;SDS011;70518;51.400;7.428;2023-10-09T10:52:02;10.48;;;5.05;;
49688;SDS011;70518;51.400;7.428;2023-10-09T10:54:40;14.18;;;5.32;;
49688;SDS011;70518;51.400;7.428;2023-10-09T10:57:15;9.82;;;4.88;;
49688;SDS011;70518;51.400;7.428;2023-10-09T10:59:54;10.68;;;5.53;;
49688;SDS011;70518;51.400;7.428;2023-10-09T11:02:38;12.25;;;5.05;;
49688;SDS011;70518;51.400;7.428;2023-10-09T11:05:05;8.88;;;5.00;;
49688;SDS011;70518;51.400;7.428;2023-10-09T11:07:48;10.70;;;5.80;;
49688;SDS011;70518;51.400;7.428;2023-10-09T11:10:21;11.05;;;5.68;;
49688;SDS011;70518;51.400;7.428;2023-10-09T11:12:52;12.13;;;5.28;;
49688;SDS011;70518;51.400;7.428;2023-10-09T11:15:29;17.33;;;5.00;;
49688;SDS011;70518;51.400;7.428;2023-10-09T11:18:06;8.77;;;4.20;;
49688;SDS011;70518;51.400;7.428;2023-10-09T11:20:33;15.25;;;5.20;;
49688;SDS011;70518;51.400;7.428;2023-10-09T11:23:00;10.52;;;4.85;;
49688;SDS011;70518;51.400;7.428;2023-10-09T11:25:36;10.13;;;4.90;;
49688;SDS011;70518;51.400;7.428;2023-10-09T11:28:15;11.05;;;5.18;;
49688;SDS011;70518;51.400;7.428;2023-10-09T11:30:55;10.40;;;5.13;;
49688;SDS011;70518;51.400;7.428;2023-10-09T11:33:41;9.15;;;5.15;;
49688;SDS011;70518;51.400;7.428;2023-10-09T11:36:10;7.68;;;4.72;;
49688;SDS011;70518;51.400;7.428;2023-10-09T11:38:36;9.77;;;5.57;;
49688;SDS011;70518;51.400;7.428;2023-10-09T11:41:12;8.55;;;4.50;;
49688;SDS011;70518;51.400;7.428;2023-10-09T11:43:48;11.30;;;4.30;;
49688;SDS011;70518;51.400;7.428;2023-10-09T11:46:18;10.40;;;4.30;;
49688;SDS011;70518;51.400;7.428;2023-10-09T11:49:05;10.10;;;4.25;;
49688;SDS011;70518;51.400;7.428;2023-10-09T11:51:44;9.88;;;4.80;;
49688;SDS011;70518;51.400;7.428;2023-10-09T11:54:29;10.98;;;4.68;;
49688;SDS011;70518;51.400;7.428;2023-10-09T11:56:56;9.20;;;5.00;;
49688;SDS011;70518;51.400;7.428;2023-10-09T11:59:25;7.70;;;4.40;;
49688;SDS011;70518;51.400;7.428;2023-10-09T12:01:52;7.45;;;4.63;;
49688;SDS011;70518;51.400;7.428;2023-10-09T12:04:17;9.05;;;4.63;;
49688;SDS011;70518;51.400;7.428;2023-10-09T12:06:43;8.43;;;4.57;;
49688;SDS011;70518;51.400;7.428;2023-10-09T12:09:09;8.85;;;5.32;;
49688;SDS011;70518;51.400;7.428;2023-10-09T12:11:41;10.73;;;5.82;;
49688;SDS011;70518;51.400;7.428;2023-10-09T12:14:06;8.65;;;4.55;;
49688;SDS011;70518;51.400;7.428;2023-10-09T12:16:32;12.50;;;5.47;;
49688;SDS011;70518;51.400;7.428;2023-10-09T12:18:58;10.27;;;5.47;;
49688;SDS011;70518;51.400;7.428;2023-10-09T12:21:24;10.88;;;5.65;;
49688;SDS011;70518;51.400;7.428;2023-10-09T12:23:52;8.98;;;5.22;;
49688;SDS011;70518;51.400;7.428;2023-10-09T12:26:22;8.75;;;5.25;;
49688;SDS011;70518;51.400;7.428;2023-10-09T12:28:47;11.90;;;5.07;;
49688;SDS011;70518;51.400;7.428;2023-10-09T12:31:14;10.35;;;4.95;;
49688;SDS011;70518;51.400;7.428;2023-10-09T12:33:41;10.05;;;5.43;;
49688;SDS011;70518;51.400;7.428;2023-10-09T12:36:16;10.18;;;5.45;;
49688;SDS011;70518;51.400;7.428;2023-10-09T12:38:47;11.38;;;5.50;;
49688;SDS011;70518;51.400;7.428;2023-10-09T12:41:17;9.82;;;5.05;;
49688;SDS011;70518;51.400;7.428;2023-10-09T12:43:53;9.90;;;4.88;;
49688;SDS011;70518;51.400;7.428;2023-10-09T12:46:19;9.85;;;5.03;;
49688;SDS011;70518;51.400;7.428;2023-10-09T12:48:48;11.18;;;5.63;;
49688;SDS011;70518;51.400;7.428;2023-10-09T12:51:14;10.68;;;5.63;;
49688;SDS011;70518;51.400;7.428;2023-10-09T12:53:46;10.38;;;5.40;;
49688;SDS011;70518;51.400;7.428;2023-10-09T12:56:15;12.38;;;5.93;;
49688;SDS011;70518;51.400;7.428;2023-10-09T12:58:43;9.50;;;5.43;;
49688;SDS011;70518;51.400;7.428;2023-10-09T13:01:17;10.00;;;4.90;;
49688;SDS011;70518;51.400;7.428;2023-10-09T13:03:44;13.18;;;5.57;;
49688;SDS011;70518;51.400;7.428;2023-10-09T13:06:14;9.80;;;4.80;;
49688;SDS011;70518;51.400;7.428;2023-10-09T13:08:40;12.98;;;5.63;;
49688;SDS011;70518;51.400;7.428;2023-10-09T13:11:06;14.52;;;5.63;;
49688;SDS011;70518;51.400;7.428;2023-10-09T13:13:36;14.68;;;6.30;;
49688;SDS011;70518;51.400;7.428;2023-10-09T13:16:07;10.48;;;5.10;;
49688;SDS011;70518;51.400;7.428;2023-10-09T13:18:33;11.65;;;5.07;;
49688;SDS011;70518;51.400;7.428;2023-10-09T13:20:58;9.25;;;5.13;;
49688;SDS011;70518;51.400;7.428;2023-10-09T13:23:28;11.43;;;5.47;;
49688;SDS011;70518;51.400;7.428;2023-10-09T13:26:03;9.05;;;5.18;;
49688;SDS011;70518;51.400;7.428;2023-10-09T13:28:33;8.65;;;5.80;;
49688;SDS011;70518;51.400;7.428;2023-10-09T13:31:02;12.15;;;5.18;;
49688;SDS011;70518;51.400;7.428;2023-10-09T13:33:29;13.35;;;5.93;;
49688;SDS011;70518;51.400;7.428;2023-10-09T13:36:01;12.93;;;5.55;;
49688;SDS011;70518;51.400;7.428;2023-10-09T13:38:27;12.60;;;5.60;;
49688;SDS011;70518;51.400;7.428;2023-10-09T13:40:57;16.17;;;5.75;;
49688;SDS011;70518;51.400;7.428;2023-10-09T13:43:26;10.73;;;5.15;;
49688;SDS011;70518;51.400;7.428;2023-10-09T13:45:53;9.70;;;4.65;;
49688;SDS011;70518;51.400;7.428;2023-10-09T13:48:18;11.48;;;5.47;;
49688;SDS011;70518;51.400;7.428;2023-10-09T13:50:46;12.50;;;5.38;;
49688;SDS011;70518;51.400;7.428;2023-10-09T13:53:12;11.02;;;5.53;;
49688;SDS011;70518;51.400;7.428;2023-10-09T13:55:39;12.13;;;5.63;;
49688;SDS011;70518;51.400;7.428;2023-10-09T13:58:08;9.38;;;4.30;;
49688;SDS011;70518;51.400;7.428;2023-10-09T14:00:38;10.10;;;5.40;;
49688;SDS011;70518;51.400;7.428;2023-10-09T14:03:07;11.88;;;5.53;;
49688;SDS011;70518;51.400;7.428;2023-10-09T14:05:37;10.27;;;5.55;;
49688;SDS011;70518;51.400;7.428;2023-10-09T14:08:09;14.45;;;5.00;;
49688;SDS011;70518;51.400;7.428;2023-10-09T14:10:36;11.10;;;5.50;;
49688;SDS011;70518;51.400;7.428;2023-10-09T14:13:03;13.77;;;6.38;;
49688;SDS011;70518;51.400;7.428;2023-10-09T14:15:37;11.82;;;5.03;;
49688;SDS011;70518;51.400;7.428;2023-10-09T14:18:06;10.25;;;5.90;;
49688;SDS011;70518;51.400;7.428;2023-10-09T14:20:33;10.27;;;5.22;;
49688;SDS011;70518;51.400;7.428;2023-10-09T14:22:59;10.35;;;4.93;;
49688;SDS011;70518;51.400;7.428;2023-10-09T14:25:35;9.57;;;5.45;;
49688;SDS011;70518;51.400;7.428;2023-10-09T14:28:03;8.38;;;4.97;;
49688;SDS011;70518;51.400;7.428;2023-10-09T14:30:33;10.95;;;5.28;;
49688;SDS011;70518;51.400;7.428;2023-10-09T14:33:13;9.13;;;5.60;;
49688;SDS011;70518;51.400;7.428;2023-10-09T14:35:42;10.73;;;5.35;;
49688;SDS011;70518;51.400;7.428;2023-10-09T14:38:09;12.93;;;5.28;;
49688;SDS011;70518;51.400;7.428;2023-10-09T14:40:41;11.65;;;5.10;;
49688;SDS011;70518;51.400;7.428;2023-10-09T14:43:09;15.00;;;6.28;;
49688;SDS011;70518;51.400;7.428;2023-10-09T14:45:44;11.95;;;5.32;;
49688;SDS011;70518;51.400;7.428;2023-10-09T14:48:14;11.47;;;5.53;;
49688;SDS011;70518;51.400;7.428;2023-10-09T14:50:46;10.35;;;5.10;;
49688;SDS011;70518;51.400;7.428;2023-10-09T14:55:40;10.60;;;5.20;;
49688;SDS011;70518;51.400;7.428;2023-10-09T14:58:06;10.35;;;5.45;;
49688;SDS011;70518;51.400;7.428;2023-10-09T15:00:32;13.98;;;5.80;;
49688;SDS011;70518;51.400;7.428;2023-10-09T15:02:59;10.70;;;5.60;;
49688;SDS011;70518;51.400;7.428;2023-10-09T15:05:24;11.02;;;5.90;;
49688;SDS011;70518;51.400;7.428;2023-10-09T15:07:50;11.82;;;6.18;;
49688;SDS011;70518;51.400;7.428;2023-10-09T15:10:17;15.82;;;6.40;;
49688;SDS011;70518;51.400;7.428;2023-10-09T15:12:43;14.63;;;6.63;;
49688;SDS011;70518;51.400;7.428;2023-10-09T15:15:11;12.90;;;6.53;;
49688;SDS011;70518;51.400;7.428;2023-10-09T15:17:39;12.45;;;6.50;;
49688;SDS011;70518;51.400;7.428;2023-10-09T15:20:10;11.70;;;6.72;;
49688;SDS011;70518;51.400;7.428;2023-10-09T15:22:40;14.02;;;7.38;;
49688;SDS011;70518;51.400;7.428;2023-10-09T15:25:09;13.15;;;6.57;;
49688;SDS011;70518;51.400;7.428;2023-10-09T15:27:39;12.13;;;6.57;;